• Join FlightAware (Why Join?)
  • Login
  • US Flag 
06:20AM EDT


 

Airport Tracker/Info


-or-


 

Live Flight TrackerFlight Track Log ✈ JST695 ✈ 24-Apr-2013 ✈ YBCS / CNS - YMML / MEL

Flight Track Log - Related Links

Times and Time Zones

All times are in EDT time to prevent confusion due to time zone crossing. See the JST695 flight status page for this flight to view local times or setup timezone preferences in your user account.

Time Position Orientation Groundspeed Altitude Reporting Facility
EDT Latitude Longitude Course Direction KTS MPH feet Rate Location/Type
12:43AM -16.8984 145.7800 126° Southeast 178 205 1,800  Level Aus ATC (RADAR)
12:43AM -16.9020 145.7850 150° Southeast 158 182 1,400 1,680 Descending FlightAware
12:44AM -16.8700 145.8021 37° Northeast 169 194 3,100 1,980 Climbing Aus ATC (RADAR)
12:45AM -16.8459 145.8224 39° Northeast 194 223 3,700 1,440 Climbing Aus ATC (RADAR)
12:45AM -16.8541 145.8837 98° East 252 290 5,300 2,160 Climbing Aus ATC (RADAR)
12:46AM -16.8708 145.8927 153° Southeast 258 297 6,200 3,240 Climbing Aus ATC (RADAR)
12:46AM -16.9077 145.9147 150° Southeast 260 299 8,000 2,640 Climbing Aus ATC (RADAR)
12:47AM -16.9380 145.9340 104° East 278 320 9,200 2,580 Climbing FlightAware
12:47AM -16.9739 145.9561 104° East 279 321 10,600 2,220 Climbing Aus ATC (RADAR)
12:48AM -16.9850 145.9630 104° East 301 346 10,700 780 Climbing FlightAware
12:48AM -17.0460 146.0000 150° Southeast 356 410 11,400 1,440 Climbing FlightAware
12:49AM -17.1080 146.0180 164° South 358 412 12,800 2,040 Climbing FlightAware
12:50AM -17.1870 146.0220 177° South 372 428 14,300 1,800 Climbing FlightAware
12:50AM -17.2590 146.0260 177° South 389 448 15,400 1,920 Climbing FlightAware
12:51AM -17.3320 146.0310 176° South 389 448 16,900 1,920 Climbing FlightAware
12:52AM -17.4170 146.0360 177° South 400 460 18,200 1,140 Climbing FlightAware
12:52AM -17.4179 146.0354 177° South 401 461 18,200 1,800 Level Aus ATC (RADAR)
12:52AM -17.4950 146.0400 177° South 405 466 19,400 2,880 Climbing FlightAware
12:53AM -17.5323 146.0421 177° South 408 470 19,900 1,620 Climbing Aus ATC (RADAR)
12:53AM -17.5730 146.0450 177° South 421 484 20,500 1,560 Climbing FlightAware
12:54AM -17.6598 146.0493 177° South 419 482 21,600 1,440 Climbing Aus ATC (RADAR)
12:54AM -17.6570 146.0500 177° South 420 483 21,600 1,380 Level FlightAware
12:55AM -17.7390 146.0540 177° South 422 486 22,600 1,200 Climbing FlightAware
12:55AM -17.8290 146.0600 176° South 434 499 23,300 1,020 Climbing FlightAware
12:56AM -17.9160 146.0650 177° South 450 518 24,100 1,200 Climbing FlightAware
12:57AM -17.9890 146.0690 177° South 454 522 24,800 1,260 Climbing FlightAware
12:57AM -18.0502 146.0726 177° South 450 518 25,400 1,140 Climbing Aus ATC (RADAR)
12:57AM -18.0930 146.0746 177° South 454 522 25,700 480 Climbing Aus ATC (RADAR)
12:57AM -18.0920 146.0750 177° South 463 533 25,600 660 Descending FlightAware
12:58AM -18.1686 146.0795 177° South 463 533 26,100 900 Climbing Aus ATC (RADAR)
12:58AM -18.1840 146.0800 177° South 472 543 26,200 840 Climbing FlightAware
12:59AM -18.2820 146.0860 177° South 478 550 26,900 840 Climbing FlightAware
12:59AM -18.3690 146.0910 177° South 488 562 27,400 180 Climbing FlightAware
01:00AM -18.3233 146.0882 177° South 475 547 27,100 900 Descending Aus ATC (RADAR)
01:00AM -18.4760 146.0970 177° South 494 568 28,100 1,320 Climbing FlightAware
01:01AM -18.5690 146.1030 177° South 503 579 28,500 660 Climbing FlightAware
01:02AM -18.6740 146.1090 177° South 509 586 29,100 900 Climbing FlightAware
01:02AM -18.7680 146.1140 177° South 509 586 29,800 900 Climbing FlightAware
01:03AM -18.8630 146.1200 177° South 512 589 30,300 960 Climbing FlightAware
01:04AM -18.9710 146.1260 177° South 507 583 31,200 1,200 Climbing FlightAware
01:04AM -19.0640 146.1320 177° South 503 579 32,000 1,140 Climbing FlightAware
01:05AM -19.1273 146.1344 177° South 502 578 32,500 900 Climbing Aus ATC (RADAR)
01:05AM -19.1550 146.1370 177° South 504 580 32,600 660 Climbing FlightAware
01:06AM -19.2620 146.1430 177° South 508 585 33,200 780 Climbing FlightAware
01:06AM -19.3430 146.1480 177° South 507 583 33,700 720 Climbing FlightAware
01:07AM -19.4640 146.1550 177° South 511 588 34,300 720 Climbing FlightAware
01:08AM -19.5520 146.1600 177° South 510 587 34,800 840 Climbing FlightAware
01:08AM -19.5980 146.1624 177° South 506 582 35,100 720 Climbing Aus ATC (RADAR)
01:09AM -19.6530 146.1660 177° South 510 587 35,300 660 Climbing FlightAware
01:09AM -19.7570 146.1730 176° South 511 588 35,900 720 Climbing FlightAware
01:10AM -19.8341 146.1770 176° South 505 581 36,200 600 Climbing Aus ATC (RADAR)
01:11AM -19.9850 146.1860 176° South 513 590 36,900 420 Climbing FlightAware
01:12AM -20.0690 146.1910 177° South 501 577 37,000 60 Climbing FlightAware
01:12AM -20.1740 146.1970 177° South 500 575 37,000  Level FlightAware
01:13AM -20.2830 146.2040 177° South 502 578 37,000  Level FlightAware
01:14AM -20.3780 146.2100 177° South 511 588 37,000  Level FlightAware
01:14AM -20.4247 146.2127 177° South 498 573 37,000  Level Aus ATC (RADAR)
01:14AM -20.4602 146.2152 176° South 496 571 37,000  Level Aus ATC (RADAR)
01:14AM -20.4730 146.2150 176° South 512 589 37,000  Level FlightAware
01:15AM -20.5810 146.2220 177° South 515 593 37,000  Level FlightAware
01:16AM -20.6760 146.2270 177° South 515 593 37,000  Level FlightAware
01:17AM -20.7820 146.2340 176° South 514 592 37,000  Level FlightAware
01:17AM -20.8770 146.2390 177° South 515 593 37,000  Level FlightAware
01:18AM -20.9740 146.2450 177° South 515 593 37,000  Level FlightAware
01:18AM -21.0199 146.2487 177° South 502 578 37,000  Level Aus ATC (RADAR)
01:19AM -21.0810 146.2520 177° South 515 593 37,000  Level FlightAware
01:19AM -21.1830 146.2580 177° South 515 593 37,000  Level FlightAware
01:20AM -21.2790 146.2640 177° South 516 594 37,000  Level FlightAware
01:21AM -21.3900 146.2700 177° South 517 595 37,000  Level FlightAware
01:21AM -21.4860 146.2760 177° South 516 594 37,000  Level FlightAware
01:22AM -21.5910 146.2830 176° South 514 592 37,000  Level FlightAware
01:22AM -21.5930 146.2838 176° South 507 583 37,000  Level Aus ATC (RADAR)
01:23AM -21.6880 146.2890 176° South 514 592 37,000  Level FlightAware
01:23AM -21.7820 146.2940 177° South 513 590 37,000  Level FlightAware
01:24AM -21.8920 146.3010 177° South 513 590 37,000  Level FlightAware
01:25AM -21.7356 146.2922 177° South 503 579 37,000  Level Aus ATC (RADAR)
01:25AM -21.9840 146.3060 177° South 514 592 37,000  Level FlightAware
01:26AM -22.0770 146.3110 177° South 511 588 37,000  Level FlightAware
01:26AM -22.1392 146.3087 177° South 510 587 37,000  Level Aus ATC (RADAR)
01:26AM -22.1850 146.3010 177° South 498 573 37,000  Level FlightAware
01:27AM -22.2750 146.2870 188° South 499 574 37,000  Level FlightAware
01:27AM -22.3452 146.2774 188° South 493 567 37,000  Level Aus ATC (RADAR)
01:28AM -22.3770 146.2710 188° South 499 574 37,000  Level FlightAware
01:28AM -22.4600 146.2580 188° South 500 575 37,000  Level FlightAware
01:29AM -22.5165 146.2500 188° South 499 574 37,000  Level Aus ATC (RADAR)
01:29AM -22.5490 146.2440 188° South 500 575 37,000  Level FlightAware
01:30AM -22.6270 146.2320 188° South 500 575 37,000  Level FlightAware
01:30AM -22.7116 146.2195 188° South 501 577 37,000  Level Aus ATC (RADAR)
01:30AM -22.7460 146.2143 188° South 498 573 37,000  Level Aus ATC (RADAR)
01:30AM -22.7050 146.2200 188° South 500 575 37,000  Level FlightAware
01:31AM -22.8020 146.2060 188° South 500 575 37,000  Level FlightAware
01:32AM -22.8800 146.1940 188° South 500 575 37,000  Level FlightAware
01:33AM -22.9580 146.1820 188° South 500 575 37,000  Level FlightAware
01:33AM -23.0560 146.1670 188° South 500 575 37,000  Level FlightAware
01:34AM -23.1330 146.1550 188° South 500 575 37,000  Level FlightAware
01:35AM -23.2110 146.1430 188° South 500 575 37,000  Level FlightAware
01:35AM -23.2890 146.1310 188° South 500 575 37,000  Level FlightAware
01:36AM -23.5195 146.0898 188° South 508 585 37,000  Level Aus ATC (RADAR)
01:36AM -23.3670 146.1190 188° South 500 575 37,000  Level FlightAware
01:37AM -23.4640 146.1040 188° South 500 575 37,000  Level FlightAware
01:38AM -23.5420 146.0920 188° South 500 575 37,000  Level FlightAware
01:38AM -23.6200 146.0800 188° South 500 575 37,000  Level FlightAware
01:39AM -24.0214 146.0267 188° South 507 583 37,000  Level Aus ATC (RADAR)
01:41AM -24.2218 146.0092 185° South 508 585 37,000  Level Aus ATC (RADAR)
01:43AM -24.4757 145.9845 185° South 501 577 37,000  Level Aus ATC (RADAR)
01:44AM -24.6251 145.9691 185° South 501 577 37,000  Level Aus ATC (RADAR)
01:46AM -24.9411 145.9379 185° South 37,000  Level Aus ATC (Calculated)
01:48AM -25.1547 145.9167 185° South  Level FlightAware Approximate
01:49AM -25.2828 145.9039 185° South  Level FlightAware Approximate
01:49AM -25.3559 145.8966 185° South 37,000  Level Aus ATC (Calculated)
01:50AM -25.4109 145.8911 185° South  Level FlightAware Approximate
01:51AM -25.5737 145.8749 185° South  Level FlightAware Approximate
01:52AM -25.7018 145.8620 185° South  Level FlightAware Approximate
01:53AM -25.8299 145.8491 185° South  Level FlightAware Approximate
01:54AM -25.9580 145.8362 185° South  Level FlightAware Approximate
01:54AM -26.0859 145.8233 185° South 37,000  Level Aus ATC (Calculated)
01:55AM -26.0861 145.8233 185° South  Level FlightAware Approximate
01:56AM -26.3059 145.8010 185° South  Level FlightAware Approximate
01:57AM -26.4340 145.7880 185° South  Level FlightAware Approximate
01:58AM -26.5621 145.7750 185° South  Level FlightAware Approximate
01:59AM -26.6902 145.7619 185° South  Level FlightAware Approximate
01:59AM -26.7527 145.7555 185° South 37,000  Level Aus ATC (Calculated)
02:00AM -26.9027 145.7402 185° South 37,000  Level Aus ATC (Calculated)
02:01AM -27.0902 145.7209 185° South 37,000  Level Aus ATC (Calculated)
02:02AM -27.1247 145.7174 185° South  Level FlightAware Approximate
02:02AM -27.1270 145.7170 185° South 491 565 37,000  Level FlightAware
02:02AM -27.2681 145.7028 North 37,000  Level Aus ATC (Calculated)
02:02AM -27.2681 145.7028 North 37,000  Level Aus ATC (Calculated)
02:03AM -27.2150 145.7080 185° South 489 563 37,000  Level FlightAware
02:03AM -27.3250 145.6970 185° South 488 562 37,000  Level FlightAware
02:04AM -27.4180 145.6880 185° South 488 562 37,000  Level FlightAware
02:05AM -27.4940 145.6800 185° South 488 562 37,000  Level FlightAware
02:05AM -27.5710 145.6730 185° South 488 562 37,000  Level FlightAware
02:06AM -27.6470 145.6650 185° South 488 562 37,000  Level FlightAware
02:07AM -27.7430 145.6560 185° South 488 562 37,000  Level FlightAware
02:07AM -27.8461 145.6435 North 37,000  Level Aus ATC (Calculated)
02:08AM -27.8190 145.6480 185° South 488 562 37,000  Level FlightAware
02:08AM -27.8960 145.6410 185° South 488 562 37,000  Level FlightAware
02:09AM -28.0989 145.6192 North 37,000  Level Aus ATC (Calculated)
02:09AM -27.9720 145.6330 185° South 488 562 37,000  Level FlightAware
02:10AM -28.0490 145.6250 185° South 488 562 37,000  Level FlightAware
02:10AM -28.1250 145.6180 185° South 488 562 37,000  Level FlightAware
02:11AM -28.2210 145.6080 185° South 488 562 37,000  Level FlightAware
02:12AM -28.2970 145.6010 185° South 488 562 37,000  Level FlightAware
02:12AM -28.3740 145.5930 185° South 488 562 37,000  Level FlightAware
02:13AM -28.6396 145.5791 North 37,000  Level Aus ATC (Calculated)
02:13AM -28.6396 145.5791 North 37,000  Level Aus ATC (Calculated)
02:13AM -28.4500 145.5860 185° South 488 562 37,000  Level FlightAware
02:14AM -28.8198 145.5657 184° South 37,000  Level Aus ATC (Calculated)
02:16AM -29.0016 145.5521 184° South  Level FlightAware Approximate
02:16AM -29.0786 145.5463 184° South 37,000  Level Aus ATC (Calculated)
02:18AM -28.8818 145.5611 North  Level FlightAware Approximate
02:19AM -29.0102 145.5514 184° South  Level FlightAware Approximate
02:20AM -29.0858 145.5458 184° South  Level FlightAware Approximate
02:21AM -29.2141 145.5361 184° South  Level FlightAware Approximate
02:21AM -29.7076 145.4988 184° South 37,000  Level Aus ATC (Calculated)
02:22AM -29.3425 145.5264 184° South  Level FlightAware Approximate
02:23AM -29.9172 145.4828 184° South  Level FlightAware Approximate
02:24AM -30.0455 145.4730 184° South  Level FlightAware Approximate
02:25AM -30.1739 145.4631 184° South  Level FlightAware Approximate
02:26AM -30.3022 145.4532 184° South  Level FlightAware Approximate
02:26AM -30.3364 145.4506 184° South 37,000  Level Aus ATC (Calculated)
02:27AM -30.4306 145.4434 184° South  Level FlightAware Approximate
02:27AM -30.4936 145.4385 184° South 37,000  Level Aus ATC (Calculated)
02:28AM -30.6508 145.4263 184° South 37,000  Level Aus ATC (Calculated)
02:30AM -30.8540 145.4105 184° South  Level FlightAware Approximate
02:30AM -30.8865 145.4080 184° South 37,000  Level Aus ATC (Calculated)
02:31AM -30.9651 145.4019 184° South 37,000  Level Aus ATC (Calculated)
02:31AM -31.0437 145.3957 184° South 37,000  Level Aus ATC (Calculated)
02:31AM -31.0437 145.3957 184° South 37,000  Level Aus ATC (Calculated)
02:33AM -31.2555 145.3792 184° South  Level FlightAware Approximate
02:34AM -31.3838 145.3691 184° South  Level FlightAware Approximate
02:35AM -31.5121 145.3589 184° South  Level FlightAware Approximate
02:36AM -31.6405 145.3488 184° South  Level FlightAware Approximate
02:36AM -31.6541 145.3479 184° South 454 522 37,000  Level Aus ATC (RADAR)
02:37AM -31.6934 145.3482 180° South 445 512 37,000  Level Aus ATC (RADAR)
02:37AM -31.7640 145.3464 181° South 441 507 37,000  Level Aus ATC (RADAR)
02:39AM -31.9357 145.3286 185° South 453 521 37,000  Level Aus ATC (RADAR)
02:39AM -31.9689 145.3244 186° South 458 527 37,000  Level Aus ATC (RADAR)
02:40AM -32.0438 145.3179 184° South 461 531 37,000  Level Aus ATC (RADAR)
02:40AM -32.1180 145.3110 184° South 452 520 37,000  Level FlightAware
02:41AM -32.1707 145.3072 184° South 461 531 37,000 180 Level Aus ATC (RADAR)
02:41AM -32.2457 145.3008 184° South 462 532 37,200  Climbing Aus ATC (RADAR)
02:41AM -32.2560 145.3000 184° South 453 521 37,000  Descending FlightAware
02:42AM -32.3608 145.2940 184° South 459 528 37,200 120 Climbing Aus ATC (RADAR)
02:42AM -32.3933 145.2905 185° South 459 528 37,200 -240 Level Aus ATC (RADAR)
02:43AM -32.4540 145.2840 185° South 455 524 37,000 -240 Descending FlightAware
02:43AM -32.5330 145.2780 184° South 454 522 37,000  Level FlightAware
02:44AM -32.6320 145.2700 184° South 453 521 37,000  Level FlightAware
02:45AM -32.7020 145.2650 183° South 453 521 37,000  Level FlightAware
02:46AM -32.8150 145.2560 184° South 451 519 37,000  Level FlightAware
02:46AM -32.9080 145.2480 184° South 451 519 37,000  Level FlightAware
02:47AM -32.9710 145.2430 184° South 451 519 37,000 240 Level FlightAware
02:47AM -32.9045 145.2489 184° South 460 529 37,200 360 Climbing Aus ATC (RADAR)
02:47AM -32.9578 145.2444 184° South 460 529 37,200 -420 Level Aus ATC (RADAR)
02:48AM -33.0800 145.2340 184° South 450 518 37,000 -180 Descending FlightAware
02:49AM -33.2280 145.2220 184° South 452 520 37,000 60 Level FlightAware
02:50AM -33.3725 145.2100 184° South 463 533 37,200  Climbing Aus ATC (RADAR)
02:50AM -33.3780 145.2100 184° South 455 524 37,000 -180 Descending FlightAware
02:51AM -33.5280 145.1980 184° South 464 534 37,000 120 Level FlightAware
02:52AM -33.5864 145.1924 184° South 464 534 37,200  Climbing Aus ATC (RADAR)
02:52AM -33.6450 145.1880 184° South 465 535 37,000 -180 Descending FlightAware
02:53AM -33.7430 145.1800 184° South 464 534 37,000 180 Level FlightAware
02:53AM -33.7257 145.1810 184° South 465 535 37,200  Climbing Aus ATC (RADAR)
02:54AM -33.8290 145.1730 184° South 464 534 37,000 -240 Descending FlightAware
02:54AM -33.9250 145.1650 184° South 464 534 37,000  Level FlightAware
02:55AM -34.0110 145.1580 184° South 465 535 37,000  Level FlightAware
02:56AM -34.1080 145.1500 184° South 467 537 37,000 120 Level FlightAware
02:56AM -33.9610 145.1614 184° South 463 533 37,200  Climbing Aus ATC (RADAR)
02:56AM -34.1940 145.1430 184° South 469 540 37,000 -240 Descending FlightAware
02:57AM -34.2930 145.1340 184° South 470 541 37,000 120 Level FlightAware
02:58AM -34.2519 145.1377 184° South 470 541 37,200 300 Climbing Aus ATC (RADAR)
02:58AM -34.3172 145.1322 184° South 472 543 37,200 -720 Level Aus ATC (RADAR)
02:58AM -34.3770 145.1270 184° South 464 534 37,000 -300 Descending FlightAware
02:58AM -34.4670 145.1200 184° South 471 542 37,000  Level FlightAware
02:59AM -34.5630 145.1120 184° South 464 534 37,000  Level FlightAware
03:00AM -34.6580 145.1040 184° South 464 534 37,000  Level FlightAware
03:01AM -34.7560 145.0960 184° South 465 535 37,000  Level FlightAware
03:01AM -34.8440 145.0880 184° South 465 535 37,000 120 Level FlightAware
03:02AM -34.9155 145.0822 184° South 473 544 37,200  Climbing Aus ATC (RADAR)
03:02AM -34.9200 145.0810 184° South 472 543 37,000 -240 Descending FlightAware
03:03AM -35.0270 145.0600 189° South 457 526 37,000 120 Level FlightAware
03:03AM -35.0960 145.0438 189° South 464 534 37,200  Climbing Aus ATC (RADAR)
03:03AM -35.1120 145.0410 189° South 454 522 37,000 -240 Descending FlightAware
03:04AM -35.2050 145.0200 190° South 459 528 37,000  Level FlightAware
03:05AM -35.2890 145.0010 190° South 458 527 37,000  Level FlightAware
03:06AM -35.3830 144.9800 190° South 459 528 37,000  Level FlightAware
03:06AM -35.4670 144.9610 190° South 460 529 37,000 180 Level FlightAware
03:07AM -35.5137 144.9506 190° South 462 532 37,200  Climbing Aus ATC (RADAR)
03:07AM -35.5510 144.9420 190° South 461 531 37,000 -240 Descending FlightAware
03:08AM -35.6450 144.9200 191° South 455 524 37,000 -300 Level FlightAware
03:08AM -35.7027 144.9070 191° South 465 535 36,700 -1,560 Descending Aus ATC (RADAR)
03:08AM -35.7200 144.9030 191° South 472 543 36,100 -2,520 Descending FlightAware
03:09AM -35.8220 144.8800 190° South 457 526 34,200 -2,340 Descending FlightAware
03:09AM -35.8738 144.8685 190° South 463 533 33,400 -2,700 Descending Aus ATC (RADAR)
03:10AM -35.9050 144.8610 190° South 456 525 32,400 -2,640 Descending FlightAware
03:10AM -35.9870 144.8420 191° South 456 525 30,800 -2,520 Descending FlightAware
03:11AM -36.0840 144.8200 190° South 440 506 28,900 -2,280 Descending FlightAware
03:12AM -36.1650 144.8010 191° South 438 504 27,600 -1,980 Descending FlightAware
03:12AM -36.2405 144.7837 191° South 431 496 26,500 -1,980 Descending Aus ATC (RADAR)
03:12AM -36.2440 144.7830 191° South 426 490 26,300 -2,160 Descending FlightAware
03:13AM -36.3300 144.7630 191° South 409 471 24,700 -1,920 Descending FlightAware
03:14AM -36.3830 144.7505 191° South 412 474 24,100 -1,680 Descending Aus ATC (RADAR)
03:14AM -36.4050 144.7460 191° South 394 453 23,600 -1,740 Descending FlightAware
03:14AM -36.4464 144.7361 191° South 398 458 23,100 -1,920 Descending Aus ATC (RADAR)
03:15AM -36.4830 144.7280 191° South 389 448 22,200 -1,860 Descending FlightAware
03:15AM -36.5550 144.7160 188° South 372 428 21,100 -2,520 Descending FlightAware
03:16AM -36.6323 144.7184 188° South 384 442 18,900 -3,180 Descending Aus ATC (RADAR)
03:16AM -36.6240 144.7190 188° South 383 441 19,000 -2,400 Climbing FlightAware
03:17AM -36.7080 144.7210 179° South 384 442 17,100 -2,700 Descending FlightAware
03:17AM -36.7780 144.7230 179° South 371 427 15,200 -3,120 Descending FlightAware
03:18AM -36.8590 144.7250 179° South 373 429 12,700 -2,400 Descending FlightAware
03:19AM -36.9145 144.7258 179° South 363 418 12,300 -1,080 Descending Aus ATC (RADAR)
03:19AM -36.9260 144.7260 179° South 336 387 12,000 -1,080 Descending FlightAware
03:19AM -36.9686 144.7270 179° South 334 384 11,700 -1,200 Descending Aus ATC (RADAR)
03:19AM -36.9860 144.7280 179° South 309 356 11,200 -1,680 Descending FlightAware
03:20AM -37.0510 144.7290 179° South 305 351 10,000 -1,380 Descending FlightAware
03:21AM -37.0860 144.7300 179° South 289 333 9,600 -1,140 Descending FlightAware
03:21AM -37.1160 144.7311 179° South 287 330 9,200 -1,440 Descending Aus ATC (RADAR)
03:21AM -37.1250 144.7310 179° South 274 315 8,900 -1,620 Descending FlightAware
03:22AM -37.1640 144.7320 179° South 277 319 8,100 -1,560 Descending FlightAware
03:22AM -37.1960 144.7380 172° South 266 306 7,500 -1,560 Descending FlightAware
03:23AM -37.2330 144.7460 170° South 262 302 6,700 -1,440 Descending FlightAware
03:23AM -37.2640 144.7520 171° South 259 298 6,200 -1,200 Descending FlightAware
03:23AM -37.2820 144.7560 170° South 261 300 5,900 -1,080 Descending FlightAware
03:24AM -37.3180 144.7640 170° South 259 298 5,400 -900 Descending FlightAware
03:24AM -37.3445 144.7691 170° South 255 293 5,200 -960 Descending Aus ATC (RADAR)
03:24AM -37.3450 144.7700 170° South 244 281 5,000 -1,680 Descending FlightAware
03:24AM -37.3640 144.7740 171° South 250 288 4,600 -1,500 Descending FlightAware
03:25AM -37.3990 144.7830 168° South 249 287 3,900 -960 Descending FlightAware
03:25AM -37.4150 144.7870 169° South 229 264 3,900  Level FlightAware
03:26AM -37.4410 144.7930 170° South 215 247 3,900 -120 Level FlightAware
03:26AM -37.4700 144.8010 168° South 198 228 3,800 -480 Descending FlightAware
03:26AM -37.4930 144.8050 172° South 196 226 3,500 -900 Descending FlightAware
03:27AM -37.5070 144.8080 170° South 196 226 3,200 -960 Descending FlightAware
03:27AM -37.5287 144.8115 170° South 194 223 2,900 -1,020 Descending Aus ATC (RADAR)
03:27AM -37.5310 144.8120 170° South 195 224 2,700 -1,140 Descending FlightAware
03:28AM -37.5500 144.8160 171° South 184 212 2,400 -1,020 Descending FlightAware
03:28AM -37.5780 144.8210 172° South 159 183 1,800 -900 Descending FlightAware
03:28AM -37.5951 144.8240 172° South 153 176 1,600 -840 Descending Aus ATC (RADAR)
03:29AM -37.5980 144.8250 172° South 144 166 1,400 -960 Descending FlightAware
03:29AM -37.6140 144.8280 172° South 140 161 1,100 -780 Descending FlightAware
03:30AM -37.6340 144.8310 173° South 137 158 700 -780 Descending FlightAware
03:30AM -37.6500 144.8340 172° South 138 159 400 -480 Descending FlightAware
03:30AM -37.6650 144.8370 171° South 87 100 300 -240 Descending FlightAware